Startpagina
METAR-TAF:

METAR-TAF

Vliegvelden :

Productieplatform

Awg-1, Nederland

breedte: 53-29-30N, lengte: 5-56-30E, hoogte: 33 m

Actueel weer

Dit bericht is 42 minuten geleden gemaakt, om 13:25 UTC
Wind 9 kt uit het oosten
Temperatuur 4°C
Vochtigheid 93%
Druk 1029 hPa
Zicht: 0300 m
mist

METAR: EHMA 161325Z AUTO 10009KT 0300 FG VV000 04/03 Q1029 W///H///

Tijdstip: 15:07 (14:07 UTC)


TAF: ontbreekt

Waarnemingen en weersverwachtingen van meer dan 4000 vliegvelden (METAR en TAF).

De beschikbare stations zijn de gele en rode punten op de kaart.

Ga met uw muis naar het station om de naam te zien.

Klik dan om waarnemingen en weersverwachtingen te zien.

kaart wijzigen: klik op de groene knoppen met een zwart kruis om in te zoomen, op de groene knop met een streepje om uit te zoomen of op de groene pijlen voor aangrenzende kaarten.


METAR-TAF: